Terminal Aerodrome Forecast
Issued by NWS Louisville, KY

Current Version | Previous Version | Text Only | Print | Product List | Glossary On
Versions: 1 2 3 4 5 6 7 8 9 10 11 12 13 14
000
FTUS43 KLMK 192300
TAFLEX
TAF
KLEX 192322Z 2000/2024 10005KT P6SM FEW200
     FM200800 16004KT P6SM SCT040
     FM201500 19009KT P6SM SCT045=

USA.gov is the U.S. government's official web portal to all federal, state and local government web resources and services.